Time;durP1;ratioP1;P1;durP2;ratioP2;P2;SDS_P1;SDS_P2;PMS_P1;PMS_P2;Temp;Humidity;BMP_temperature;BMP_pressure;BME280_temperature;BME280_humidity;BME280_pressure;Samples;Min_cycle;Max_cycle;Signal;HPM_P1;HPM_P2
2023/03/22 00:00:35;;;;;;;12.98;8.60;;;9.20;99.90;;;;;;5013968;28;20091;-75
2023/03/22 00:03:02;;;;;;;12.75;9.15;;;9.10;99.90;;;;;;5005778;28;20048;-75
2023/03/22 00:05:29;;;;;;;12.88;8.13;;;9.00;99.90;;;;;;4997581;28;20052;-75
2023/03/22 00:07:57;;;;;;;13.10;8.30;;;8.90;99.90;;;;;;5005441;28;20120;-75
2023/03/22 00:10:30;;;;;;;10.43;7.65;;;9.00;99.90;;;;;;4989620;28;20034;-75
2023/03/22 00:12:55;;;;;;;9.65;6.30;;;8.90;99.90;;;;;;5011939;28;20033;-75
2023/03/22 00:15:21;;;;;;;10.18;6.90;;;8.90;99.90;;;;;;5011410;28;20037;-76
2023/03/22 00:17:49;;;;;;;15.57;6.75;;;8.90;99.90;;;;;;5006472;28;20038;-75
2023/03/22 00:20:16;;;;;;;9.07;6.78;;;8.90;99.90;;;;;;4997300;28;20124;-75
2023/03/22 00:22:42;;;;;;;12.30;6.05;;;8.90;99.90;;;;;;5013628;28;20037;-75
2023/03/22 00:25:09;;;;;;;11.90;5.97;;;8.90;99.90;;;;;;4995387;28;20038;-75
2023/03/22 00:27:35;;;;;;;8.27;5.82;;;8.90;99.90;;;;;;5000074;28;20055;-75
2023/03/22 00:30:00;;;;;;;9.48;5.53;;;8.90;99.90;;;;;;5013312;28;20110;-75
2023/03/22 00:32:26;;;;;;;10.70;5.10;;;8.90;99.90;;;;;;4997071;28;20548;-75
2023/03/22 00:34:52;;;;;;;10.38;5.35;;;8.90;99.90;;;;;;5010555;28;20037;-75
2023/03/22 00:37:17;;;;;;;8.52;4.82;;;8.90;99.90;;;;;;4997696;28;20037;-75
2023/03/22 00:39:43;;;;;;;8.20;5.22;;;9.00;99.90;;;;;;5013209;28;20131;-75
2023/03/22 00:42:09;;;;;;;8.77;4.85;;;9.00;99.90;;;;;;5013313;28;20491;-75
2023/03/22 00:44:35;;;;;;;10.30;5.47;;;9.00;99.90;;;;;;4997542;28;20048;-75
2023/03/22 00:47:01;;;;;;;11.25;5.25;;;9.00;99.90;;;;;;4980224;28;20085;-75
2023/03/22 00:49:27;;;;;;;9.55;4.55;;;9.00;99.90;;;;;;4996896;28;20061;-74
2023/03/22 00:51:53;;;;;;;5.97;4.35;;;9.10;99.90;;;;;;4997126;28;20172;-75
2023/03/22 00:54:19;;;;;;;8.52;4.40;;;9.10;99.90;;;;;;5014027;28;20518;-75
2023/03/22 00:56:45;;;;;;;8.57;4.65;;;9.10;99.90;;;;;;5005997;28;20116;-75
2023/03/22 00:59:14;;;;;;;7.68;4.43;;;9.10;99.90;;;;;;5012866;28;20042;-75
2023/03/22 01:01:40;;;;;;;8.02;3.88;;;9.20;99.90;;;;;;5002121;28;20099;-75
2023/03/22 01:04:06;;;;;;;8.55;3.88;;;9.20;99.90;;;;;;5004110;28;20050;-76
2023/03/22 01:06:32;;;;;;;8.15;3.70;;;9.30;99.90;;;;;;5015064;28;20044;-75
2023/03/22 01:08:58;;;;;;;8.75;3.85;;;9.20;99.90;;;;;;5001610;28;20044;-75
2023/03/22 01:11:24;;;;;;;13.18;4.38;;;9.20;99.90;;;;;;5004706;28;20120;-75
2023/03/22 01:13:50;;;;;;;9.18;3.95;;;9.20;99.90;;;;;;4998187;28;20041;-75
2023/03/22 01:16:16;;;;;;;9.77;3.40;;;9.20;99.90;;;;;;4984687;28;20128;-75
2023/03/22 01:18:42;;;;;;;9.55;3.65;;;9.20;99.90;;;;;;5017148;28;20068;-75
2023/03/22 01:21:08;;;;;;;7.43;3.20;;;9.20;99.90;;;;;;5000562;28;20091;-75
2023/03/22 01:23:34;;;;;;;10.10;3.53;;;9.20;99.90;;;;;;5017743;28;20045;-75
2023/03/22 01:26:00;;;;;;;9.63;3.35;;;9.20;99.90;;;;;;4998761;28;20044;-75
2023/03/22 01:28:27;;;;;;;9.77;4.25;;;9.20;99.90;;;;;;5009738;28;20442;-75
2023/03/22 01:30:53;;;;;;;9.27;3.30;;;9.20;99.90;;;;;;5016174;28;20117;-74
2023/03/22 01:33:18;;;;;;;7.72;3.00;;;9.20;99.90;;;;;;5015552;28;20108;-75
2023/03/22 01:35:44;;;;;;;9.13;3.45;;;9.20;99.90;;;;;;5003843;28;20511;-74
2023/03/22 01:38:10;;;;;;;8.38;3.72;;;9.20;99.90;;;;;;5000871;28;20079;-75
2023/03/22 01:40:35;;;;;;;7.40;3.30;;;9.20;99.90;;;;;;4994388;28;20038;-75
2023/03/22 01:43:01;;;;;;;8.52;3.20;;;9.20;99.90;;;;;;5015016;28;20060;-75
2023/03/22 01:45:36;;;;;;;8.88;3.55;;;9.20;99.90;;;;;;5000366;28;20491;-75
2023/03/22 01:48:14;;;;;;;10.70;3.72;;;9.20;99.90;;;;;;5000709;28;20041;-75
2023/03/22 01:50:44;;;;;;;7.55;3.08;;;9.20;99.90;;;;;;5009727;28;20053;-75
2023/03/22 01:53:12;;;;;;;11.65;3.53;;;9.20;99.90;;;;;;5007809;28;20116;-75
2023/03/22 01:55:38;;;;;;;11.45;3.67;;;9.20;99.90;;;;;;4991674;28;20092;-75
2023/03/22 01:58:05;;;;;;;9.32;3.78;;;9.20;99.90;;;;;;5011232;28;20080;-75
2023/03/22 02:00:32;;;;;;;9.73;4.03;;;9.30;99.90;;;;;;5015749;28;20408;-75
2023/03/22 02:02:58;;;;;;;9.65;3.45;;;9.30;99.90;;;;;;5016733;28;20048;-75
2023/03/22 02:05:25;;;;;;;9.30;4.05;;;9.20;99.90;;;;;;5017105;28;20049;-75
2023/03/22 02:07:51;;;;;;;6.70;3.88;;;9.30;99.90;;;;;;5015749;28;20056;-75
2023/03/22 02:10:24;;;;;;;8.13;3.50;;;9.20;99.90;;;;;;5007735;28;20091;-75
2023/03/22 02:13:18;;;;;;;8.07;4.03;;;9.20;99.90;;;;;;5000159;28;20061;-75
2023/03/22 02:16:02;;;;;;;7.40;3.20;;;9.20;99.90;;;;;;5014559;28;20120;-75
2023/03/22 02:18:55;;;;;;;9.70;3.95;;;9.20;99.90;;;;;;5028009;28;20128;-75
2023/03/22 02:21:30;;;;;;;6.40;3.65;;;9.20;99.90;;;;;;5009295;28;20045;-74
2023/03/22 02:24:04;;;;;;;6.70;3.58;;;9.20;99.90;;;;;;5006926;28;20046;-75
2023/03/22 02:26:58;;;;;;;8.65;3.83;;;9.20;99.90;;;;;;5014704;28;20525;-75
2023/03/22 02:29:28;;;;;;;;;;;9.20;99.90;;;;;;5000398;28;20041;-75
2023/03/22 02:32:00;;;;;;;9.18;4.10;;;9.10;99.90;;;;;;5015821;28;19921;-75
2023/03/22 02:34:43;;;;;;;9.45;4.90;;;9.20;99.90;;;;;;5016357;28;20041;-75
2023/03/22 02:37:40;;;;;;;9.90;4.25;;;9.20;99.90;;;;;;4999066;28;20088;-75
2023/03/22 02:40:14;;;;;;;9.43;4.40;;;9.10;99.90;;;;;;5015823;28;20341;-75
2023/03/22 02:43:19;;;;;;;10.20;4.22;;;9.10;99.90;;;;;;4991304;28;20123;-76
2023/03/22 02:45:57;;;;;;;10.93;3.90;;;9.10;99.90;;;;;;4909362;29;20187;-75
2023/03/22 02:48:43;;;;;;;10.38;4.35;;;9.20;99.90;;;;;;5003764;28;20107;-75
2023/03/22 02:51:16;;;;;;;11.02;3.85;;;9.10;99.90;;;;;;5015463;28;20518;-75
2023/03/22 02:54:00;;;;;;;8.77;3.85;;;9.10;99.90;;;;;;5000060;28;20029;-75
2023/03/22 02:57:11;;;;;;;6.88;3.85;;;9.00;99.90;;;;;;5000920;28;20068;-74
2023/03/22 02:59:39;;;;;;;10.05;4.35;;;9.00;99.90;;;;;;4985325;28;20045;-75
2023/03/22 03:02:10;;;;;;;9.27;4.05;;;9.00;99.90;;;;;;5013115;28;20092;-76
2023/03/22 03:04:42;;;;;;;8.95;3.97;;;9.00;99.90;;;;;;4980191;28;20038;-75
2023/03/22 03:07:11;;;;;;;8.68;4.13;;;9.00;99.90;;;;;;4992239;28;20100;-75
2023/03/22 03:09:40;;;;;;;8.00;3.50;;;9.00;99.90;;;;;;5014281;28;20041;-75
2023/03/22 03:12:17;;;;;;;8.68;3.42;;;9.00;99.90;;;;;;4998835;28;20052;-75
2023/03/22 03:14:43;;;;;;;8.98;3.38;;;9.00;99.90;;;;;;4999239;28;20438;-75
2023/03/22 03:17:34;;;;;;;9.82;4.32;;;9.00;99.90;;;;;;5015588;28;20042;-75
2023/03/22 03:20:15;;;;;;;7.85;3.13;;;9.00;99.90;;;;;;4989139;28;20037;-75
2023/03/22 03:22:56;;;;;;;6.32;3.17;;;9.00;99.90;;;;;;5008730;28;20038;-74
2023/03/22 03:25:33;;;;;;;10.15;3.05;;;9.00;99.90;;;;;;4996045;28;20056;-75
2023/03/22 03:28:29;;;;;;;6.75;2.78;;;9.00;99.90;;;;;;4979125;28;20072;-75
2023/03/22 03:31:02;;;;;;;6.45;2.88;;;9.00;99.90;;;;;;5014665;28;20030;-75
2023/03/22 03:33:33;;;;;;;7.10;3.05;;;9.10;99.90;;;;;;5012020;28;20042;-75
2023/03/22 03:36:08;;;;;;;8.98;3.40;;;9.10;99.90;;;;;;4998473;28;20044;-75
2023/03/22 03:38:37;;;;;;;8.30;3.13;;;9.10;99.90;;;;;;4999226;28;20475;-75
2023/03/22 03:41:08;;;;;;;8.57;3.25;;;9.10;99.90;;;;;;5013069;28;20037;-75
2023/03/22 03:43:36;;;;;;;6.80;3.40;;;9.10;99.90;;;;;;5008129;28;20226;-76
2023/03/22 03:46:02;;;;;;;7.50;3.53;;;9.10;99.90;;;;;;5014479;28;20107;-75
2023/03/22 03:48:32;;;;;;;6.70;3.47;;;9.10;99.90;;;;;;5006342;28;20495;-75
2023/03/22 03:51:00;;;;;;;8.60;4.00;;;9.10;99.90;;;;;;5010984;28;20038;-75
2023/03/22 03:53:26;;;;;;;6.68;3.80;;;9.10;99.90;;;;;;4985626;28;20113;-74
2023/03/22 03:55:52;;;;;;;8.40;3.58;;;9.00;99.90;;;;;;5010948;28;20052;-75
2023/03/22 03:58:17;;;;;;;10.85;4.38;;;9.00;99.90;;;;;;4994610;28;20038;-76
2023/03/22 04:00:45;;;;;;;10.90;4.82;;;9.00;99.90;;;;;;5000083;28;20084;-75
2023/03/22 04:03:11;;;;;;;8.38;4.70;;;9.00;99.90;;;;;;5003314;28;20037;-75
2023/03/22 04:05:36;;;;;;;8.38;5.78;;;9.00;99.90;;;;;;5006550;28;20063;-75
2023/03/22 04:08:02;;;;;;;9.15;5.50;;;9.00;99.90;;;;;;4998259;28;20037;-75
2023/03/22 04:10:28;;;;;;;10.18;6.45;;;9.00;99.90;;;;;;4996790;28;20547;-75
2023/03/22 04:12:53;;;;;;;10.82;6.90;;;9.00;99.90;;;;;;4990797;28;20041;-76
2023/03/22 04:15:19;;;;;;;11.02;7.90;;;9.00;99.90;;;;;;4998073;28;20484;-75
2023/03/22 04:17:45;;;;;;;12.52;8.38;;;9.00;99.90;;;;;;5014356;28;20124;-75
2023/03/22 04:20:12;;;;;;;13.68;8.77;;;9.00;99.90;;;;;;5014028;28;20064;-74
2023/03/22 04:22:39;;;;;;;14.60;9.52;;;9.00;99.90;;;;;;4989325;28;20034;-75
2023/03/22 04:25:11;;;;;;;11.07;9.40;;;8.90;99.90;;;;;;4997702;28;20553;-74
2023/03/22 04:27:41;;;;;;;12.07;9.57;;;9.00;99.90;;;;;;4992273;28;20048;-74
2023/03/22 04:30:10;;;;;;;13.93;10.43;;;9.00;99.90;;;;;;4997936;28;20128;-74
2023/03/22 04:32:36;;;;;;;15.73;11.98;;;9.00;99.90;;;;;;5008083;28;20404;-75
2023/03/22 04:35:03;;;;;;;16.55;11.75;;;9.00;99.90;;;;;;5012020;28;20404;-75
2023/03/22 04:37:32;;;;;;;15.55;11.32;;;9.00;99.90;;;;;;5010716;28;20068;-76
2023/03/22 04:39:58;;;;;;;16.38;12.57;;;9.00;99.90;;;;;;5006898;28;20121;-75
2023/03/22 04:42:24;;;;;;;14.55;11.45;;;9.00;99.90;;;;;;5000152;28;20132;-75
2023/03/22 04:44:50;;;;;;;16.63;13.57;;;9.00;99.90;;;;;;5014066;28;20145;-75
2023/03/22 04:47:16;;;;;;;16.35;13.18;;;9.00;99.90;;;;;;4997683;28;20042;-74
2023/03/22 04:49:43;;;;;;;16.13;13.07;;;9.00;99.90;;;;;;4997785;28;20518;-75
2023/03/22 04:52:09;;;;;;;18.58;13.95;;;9.00;99.90;;;;;;5003669;28;20487;-75
2023/03/22 04:54:35;;;;;;;17.27;14.13;;;9.00;99.90;;;;;;5007930;28;20344;-75
2023/03/22 04:57:01;;;;;;;18.52;13.90;;;9.00;99.90;;;;;;5014202;28;20060;-74
2023/03/22 04:59:26;;;;;;;17.50;15.05;;;9.00;99.90;;;;;;5013996;28;20491;-74
2023/03/22 05:01:52;;;;;;;18.65;14.70;;;9.10;99.90;;;;;;5012321;28;20041;-75
2023/03/22 05:04:18;;;;;;;20.13;15.95;;;9.10;99.90;;;;;;5013717;28;20450;-75
2023/03/22 05:06:45;;;;;;;18.05;15.73;;;9.10;99.90;;;;;;5013200;28;20132;-75
2023/03/22 05:09:12;;;;;;;20.77;15.75;;;9.10;99.90;;;;;;4995339;28;20044;-75
2023/03/22 05:11:39;;;;;;;19.27;16.25;;;9.10;99.90;;;;;;4998635;28;20033;-75
2023/03/22 05:14:06;;;;;;;21.70;15.90;;;9.10;99.90;;;;;;4997595;28;20440;-75
2023/03/22 05:16:32;;;;;;;20.73;16.13;;;9.10;99.90;;;;;;5013546;28;20438;-75
2023/03/22 05:18:58;;;;;;;20.85;15.25;;;9.10;99.90;;;;;;5013992;28;20384;-75
2023/03/22 05:21:27;;;;;;;19.92;15.05;;;9.20;99.90;;;;;;4996592;28;20136;-75
2023/03/22 05:23:57;;;;;;;19.95;15.60;;;9.20;99.90;;;;;;5013511;28;20038;-75
2023/03/22 05:26:26;;;;;;;20.70;15.35;;;9.20;99.90;;;;;;4997199;28;20381;-75
2023/03/22 05:29:07;;;;;;;19.33;15.35;;;9.20;99.90;;;;;;5139539;22;20499;-80
2023/03/22 05:31:47;;;;;;;18.02;15.27;;;9.20;99.90;;;;;;4984418;28;20563;-80
2023/03/22 05:34:20;;;;;;;18.70;16.27;;;9.20;99.90;;;;;;4996969;28;20060;-80
2023/03/22 05:37:02;;;;;;;20.48;15.05;;;9.20;99.90;;;;;;4996900;28;20499;-80
2023/03/22 05:39:47;;;;;;;19.17;15.20;;;9.20;99.90;;;;;;4977655;28;20444;-80
2023/03/22 05:42:31;;;;;;;18.42;14.27;;;9.20;99.90;;;;;;4979841;28;20516;-81
2023/03/22 05:45:11;;;;;;;18.48;15.25;;;9.20;99.90;;;;;;4959981;28;20034;-82
2023/03/22 05:48:07;;;;;;;18.13;14.60;;;9.30;99.90;;;;;;5008220;28;20065;-80
2023/03/22 05:51:22;;;;;;;;;;;;;;;;;;;;;
2023/03/22 05:54:19;;;;;;;19.23;14.10;;;9.20;99.90;;;;;;5015352;28;20036;-80
2023/03/22 05:57:02;;;;;;;18.67;14.30;;;9.20;99.90;;;;;;4980894;28;20050;-81
2023/03/22 05:59:45;;;;;;;19.77;14.00;;;9.30;99.90;;;;;;4991243;28;20049;-83
2023/03/22 06:07:38;;;;;;;17.73;14.00;;;9.40;99.90;;;;;;4936791;29;20050;-80
2023/03/22 06:11:34;;;;;;;20.90;13.85;;;9.40;99.90;;;;;;4928608;28;20051;-81
2023/03/22 06:15:43;;;;;;;16.50;13.45;;;9.40;99.90;;;;;;4844886;29;20042;-81
2023/03/22 06:19:59;;;;;;;;;;;;;;;;;;;;;
2023/03/22 06:23:45;;;;;;;15.82;12.95;;;9.60;99.90;;;;;;4865014;29;20202;-80
2023/03/22 06:27:36;;;;;;;16.13;12.60;;;9.60;99.90;;;;;;4970095;28;20068;-80
2023/03/22 06:31:34;;;;;;;17.35;11.77;;;9.70;99.90;;;;;;4933754;29;20058;-80
2023/03/22 06:35:40;;;;;;;15.13;12.23;;;9.80;99.90;;;;;;4896994;29;20538;-80
2023/03/22 06:38:53;;;;;;;13.82;10.73;;;9.90;99.90;;;;;;4793238;29;20442;-85
2023/03/22 06:41:34;;;;;;;12.63;10.43;;;10.10;99.90;;;;;;4813943;29;20128;-79
2023/03/22 06:44:09;;;;;;;15.25;11.05;;;10.10;99.90;;;;;;4920808;28;20045;-79
2023/03/22 06:46:47;;;;;;;15.57;10.07;;;10.30;99.90;;;;;;4977248;28;20038;-80
2023/03/22 06:49:23;;;;;;;12.70;9.82;;;10.40;99.90;;;;;;4979702;28;20038;-78
2023/03/22 06:51:53;;;;;;;13.52;9.32;;;10.40;99.90;;;;;;4975932;28;20041;-79
2023/03/22 06:54:20;;;;;;;13.15;9.60;;;10.50;99.90;;;;;;4976567;28;20038;-78
2023/03/22 06:56:46;;;;;;;12.25;8.35;;;10.40;99.90;;;;;;4972429;28;20130;-78
2023/03/22 06:59:15;;;;;;;12.50;8.93;;;10.40;99.90;;;;;;4980446;28;20049;-77
2023/03/22 07:01:41;;;;;;;11.10;8.30;;;10.40;99.90;;;;;;4983956;28;20473;-77
2023/03/22 07:04:10;;;;;;;11.38;8.48;;;10.50;99.90;;;;;;4962891;28;20067;-77
2023/03/22 07:06:36;;;;;;;9.90;7.95;;;10.50;99.90;;;;;;4978055;28;20041;-77
2023/03/22 07:09:17;;;;;;;11.88;8.13;;;10.50;99.90;;;;;;4980357;28;20480;-78
2023/03/22 07:11:49;;;;;;;11.65;7.75;;;10.50;99.90;;;;;;4979508;28;20038;-74
2023/03/22 07:14:18;;;;;;;13.10;8.20;;;10.50;99.90;;;;;;4971410;28;20042;-77
2023/03/22 07:16:46;;;;;;;10.77;7.65;;;10.50;99.90;;;;;;4977256;28;20042;-76
2023/03/22 07:19:30;;;;;;;10.48;7.25;;;10.50;99.90;;;;;;4973029;28;20038;-77
2023/03/22 07:21:58;;;;;;;11.60;7.63;;;10.50;99.90;;;;;;4976726;28;20038;-77
2023/03/22 07:24:24;;;;;;;11.98;6.97;;;10.60;99.90;;;;;;4976687;28;20046;-77
2023/03/22 07:26:52;;;;;;;9.35;6.45;;;10.60;99.90;;;;;;4974881;28;20068;-77
2023/03/22 07:29:21;;;;;;;10.38;6.60;;;10.70;99.90;;;;;;4970931;28;20172;-77
2023/03/22 07:31:52;;;;;;;9.25;6.47;;;10.70;99.90;;;;;;4979333;28;20491;-77
2023/03/22 07:34:24;;;;;;;8.98;5.95;;;10.70;99.90;;;;;;4979930;28;20038;-77
2023/03/22 07:36:50;;;;;;;11.25;6.80;;;10.80;99.90;;;;;;4979678;28;20080;-77
2023/03/22 07:39:18;;;;;;;12.82;7.35;;;10.80;99.90;;;;;;4995743;28;20049;-77
2023/03/22 07:41:47;;;;;;;11.05;7.07;;;10.90;99.90;;;;;;4975932;28;20038;-77
2023/03/22 07:44:13;;;;;;;10.07;7.35;;;10.90;99.90;;;;;;4975148;28;20074;-77
2023/03/22 07:46:44;;;;;;;9.63;6.30;;;10.90;99.90;;;;;;4995370;28;20034;-77
2023/03/22 07:49:13;;;;;;;10.70;6.35;;;10.80;99.90;;;;;;4979649;28;20048;-78
2023/03/22 07:51:39;;;;;;;9.68;6.00;;;10.80;99.90;;;;;;4978804;28;20038;-77
2023/03/22 07:54:13;;;;;;;7.80;5.50;;;10.80;99.90;;;;;;4979504;28;20083;-77
2023/03/22 07:56:38;;;;;;;12.15;6.10;;;10.80;99.90;;;;;;4976547;28;20116;-77
2023/03/22 07:59:05;;;;;;;11.20;5.75;;;10.70;99.90;;;;;;4978683;28;20478;-76
2023/03/22 08:01:36;;;;;;;10.15;5.60;;;10.70;99.90;;;;;;4970940;28;20554;-77
2023/03/22 08:04:01;;;;;;;10.32;5.30;;;10.70;99.90;;;;;;4973292;28;20045;-76
2023/03/22 08:06:28;;;;;;;14.23;5.55;;;10.70;99.90;;;;;;4976566;28;20034;-77
2023/03/22 08:08:57;;;;;;;7.25;5.43;;;10.80;99.90;;;;;;4973593;28;20054;-76
2023/03/22 08:11:42;;;;;;;7.90;5.43;;;10.80;99.90;;;;;;4990920;28;20103;-80
2023/03/22 08:14:34;;;;;;;10.38;5.10;;;10.70;99.90;;;;;;4994584;28;20033;-80
2023/03/22 08:17:00;;;;;;;10.10;5.50;;;10.70;99.90;;;;;;4975980;28;20077;-79
2023/03/22 08:19:26;;;;;;;12.05;5.18;;;10.70;99.90;;;;;;4977117;28;20057;-77
2023/03/22 08:21:52;;;;;;;10.73;5.18;;;10.70;99.90;;;;;;4977212;28;20038;-76
2023/03/22 08:24:28;;;;;;;8.73;5.47;;;10.70;99.90;;;;;;4972844;28;20374;-79
2023/03/22 08:26:54;;;;;;;9.98;4.97;;;10.70;99.90;;;;;;4974003;28;20446;-79
2023/03/22 08:29:22;;;;;;;10.98;5.60;;;10.70;99.90;;;;;;4969657;28;20133;-78
2023/03/22 08:31:51;;;;;;;7.68;4.97;;;10.70;99.90;;;;;;4972223;28;20135;-77
2023/03/22 08:34:19;;;;;;;9.93;5.32;;;10.70;99.90;;;;;;4979126;28;20050;-76
2023/03/22 08:36:57;;;;;;;12.60;5.15;;;10.70;99.90;;;;;;4978266;28;20045;-76
2023/03/22 08:39:22;;;;;;;7.63;5.05;;;10.80;99.90;;;;;;4969905;28;20038;-76
2023/03/22 08:41:51;;;;;;;9.80;5.47;;;10.90;99.90;;;;;;4977677;28;20065;-77
2023/03/22 08:44:20;;;;;;;8.30;4.85;;;11.10;99.90;;;;;;4978291;28;20099;-77
2023/03/22 08:46:49;;;;;;;10.85;4.93;;;11.30;99.90;;;;;;4978364;28;20045;-76
2023/03/22 08:49:20;;;;;;;11.32;5.72;;;11.30;99.90;;;;;;4994708;28;20049;-77
2023/03/22 08:51:51;;;;;;;8.43;4.63;;;11.40;99.90;;;;;;4994634;28;20115;-76
2023/03/22 08:54:21;;;;;;;9.45;4.88;;;11.60;99.90;;;;;;4977257;28;20045;-77
2023/03/22 08:56:47;;;;;;;9.63;5.03;;;11.70;99.90;;;;;;4974082;28;20050;-77
2023/03/22 08:59:13;;;;;;;9.68;4.45;;;11.80;99.90;;;;;;4977387;28;20046;-76
2023/03/22 09:01:39;;;;;;;7.50;3.60;;;11.90;99.90;;;;;;4977619;28;20058;-78
2023/03/22 09:04:05;;;;;;;9.68;4.75;;;11.90;99.90;;;;;;4978127;28;20128;-77
2023/03/22 09:06:33;;;;;;;11.00;4.80;;;11.80;99.90;;;;;;4977238;28;20088;-76
2023/03/22 09:09:02;;;;;;;9.18;4.65;;;11.80;99.90;;;;;;4978181;28;20042;-76
2023/03/22 09:11:28;;;;;;;11.20;4.30;;;11.60;99.90;;;;;;4970690;28;20376;-77
2023/03/22 09:13:54;;;;;;;9.77;4.13;;;11.70;99.90;;;;;;4977581;28;20056;-76
2023/03/22 09:16:25;;;;;;;8.25;3.97;;;11.60;99.90;;;;;;4978081;28;20404;-77
2023/03/22 09:18:51;;;;;;;7.78;3.88;;;11.60;99.90;;;;;;4978113;28;20038;-77
2023/03/22 09:21:17;;;;;;;9.60;4.13;;;11.70;99.90;;;;;;4978227;28;20495;-76
2023/03/22 09:23:46;;;;;;;7.82;3.63;;;11.70;99.90;;;;;;4977063;28;20041;-76
2023/03/22 09:26:15;;;;;;;7.13;3.83;;;11.70;99.90;;;;;;4979429;28;20045;-76
2023/03/22 09:28:41;;;;;;;8.88;3.25;;;11.70;99.90;;;;;;4981761;28;20288;-76
2023/03/22 09:31:10;;;;;;;5.93;3.50;;;11.70;99.90;;;;;;4997973;28;20388;-76
2023/03/22 09:33:40;;;;;;;7.43;3.42;;;11.70;99.90;;;;;;4996694;28;20033;-77
2023/03/22 09:36:10;;;;;;;6.65;3.20;;;11.60;99.90;;;;;;4997484;28;20117;-77
2023/03/22 09:38:37;;;;;;;8.27;3.50;;;11.60;99.90;;;;;;4979368;28;20058;-76
2023/03/22 09:41:20;;;;;;;10.27;3.75;;;11.50;99.90;;;;;;4978179;28;20172;-76
2023/03/22 09:44:11;;;;;;;7.75;3.30;;;11.50;99.90;;;;;;4976467;28;20120;-77
2023/03/22 09:46:41;;;;;;;8.05;3.60;;;11.40;99.90;;;;;;4969360;28;20044;-78
2023/03/22 09:49:21;;;;;;;9.30;3.70;;;11.40;99.90;;;;;;4974110;28;20030;-80
2023/03/22 09:52:00;;;;;;;7.20;3.17;;;11.30;99.90;;;;;;4979513;28;20496;-79
2023/03/22 09:54:43;;;;;;;7.40;4.20;;;11.30;99.90;;;;;;4984586;28;20081;-79
2023/03/22 09:57:34;;;;;;;7.27;3.17;;;11.30;99.90;;;;;;4975263;28;20050;-79
2023/03/22 10:00:17;;;;;;;7.75;3.33;;;11.30;99.90;;;;;;4987732;28;20300;-79
2023/03/22 10:02:53;;;;;;;;;;;11.30;99.90;;;;;;4995303;28;20208;-78
2023/03/22 10:05:44;;;;;;;7.97;3.50;;;11.30;99.90;;;;;;4982200;28;20375;-79
2023/03/22 10:08:30;;;;;;;9.77;3.55;;;11.30;99.90;;;;;;4986806;28;20120;-79
2023/03/22 10:10:58;;;;;;;6.95;3.95;;;11.30;99.90;;;;;;4982948;28;20049;-79
2023/03/22 10:14:15;;;;;;;7.03;3.15;;;11.40;99.90;;;;;;4990320;28;20061;-79
2023/03/22 10:16:48;;;;;;;8.60;3.65;;;11.30;99.90;;;;;;4952668;28;20060;-80
2023/03/22 10:19:20;;;;;;;;;;;11.30;99.90;;;;;;4999116;28;20041;-78
2023/03/22 10:21:53;;;;;;;7.05;3.88;;;11.30;99.90;;;;;;4998114;28;19921;-78
2023/03/22 10:24:49;;;;;;;8.65;3.75;;;11.30;99.90;;;;;;4990074;28;20079;-82
2023/03/22 10:27:42;;;;;;;8.43;3.53;;;11.30;99.90;;;;;;4960684;28;20151;-75
2023/03/22 10:30:55;;;;;;;;;;;;;;;;;;;;;
2023/03/22 10:38:25;;;;;;;6.60;3.67;;;11.30;99.90;;;;;;4914948;29;20046;-80
2023/03/22 10:40:57;;;;;;;8.00;3.03;;;11.40;99.90;;;;;;4844342;29;20145;-79
2023/03/22 10:43:40;;;;;;;7.05;3.50;;;11.20;99.90;;;;;;4853645;29;20045;-76
2023/03/22 10:46:11;;;;;;;;;;;11.30;99.90;;;;;;4950034;28;20086;-76
2023/03/22 10:48:56;;;;;;;;;;;11.20;99.90;;;;;;4961949;28;19918;-77
2023/03/22 10:51:46;;;;;;;7.88;3.88;;;11.10;99.90;;;;;;4971478;28;19971;-77
2023/03/22 10:54:17;;;;;;;6.47;3.42;;;10.90;99.90;;;;;;4980655;28;20026;-78
2023/03/22 10:57:12;;;;;;;8.55;3.97;;;10.70;99.90;;;;;;4970276;28;20042;-79
2023/03/22 11:00:20;;;;;;;8.05;4.03;;;10.60;99.90;;;;;;4973806;28;20033;-80
2023/03/22 11:03:27;;;;;;;6.97;4.10;;;10.60;99.90;;;;;;4973184;28;20044;-83
2023/03/22 11:06:11;;;;;;;7.70;3.33;;;10.50;99.90;;;;;;4963384;28;20038;-80
2023/03/22 11:08:42;;;;;;;6.65;3.88;;;10.50;99.90;;;;;;4979312;28;20037;-78
2023/03/22 11:11:35;;;;;;;8.60;3.63;;;10.50;99.90;;;;;;4980201;28;20042;-80
2023/03/22 11:14:39;;;;;;;6.05;3.15;;;10.40;99.90;;;;;;4991614;28;20037;-81
2023/03/22 11:20:46;;;;;;;8.13;3.53;;;10.40;99.90;;;;;;4992221;28;20042;-81
2023/03/22 11:23:39;;;;;;;6.32;3.65;;;10.30;99.90;;;;;;4995930;28;20042;-81
2023/03/22 11:27:09;;;;;;;7.68;3.90;;;10.30;99.90;;;;;;4985059;28;20313;-80
2023/03/22 11:30:11;;;;;;;;;;;;;;;;;;;;;
2023/03/22 11:36:55;;;;;;;10.55;3.50;;;10.40;99.90;;;;;;4968507;28;20046;-81
2023/03/22 11:39:52;;;;;;;7.32;3.92;;;10.50;99.90;;;;;;5014149;28;20041;-81
2023/03/22 11:42:52;;;;;;;9.37;4.13;;;10.60;99.90;;;;;;4934923;28;20139;-80
2023/03/22 11:45:45;;;;;;;8.07;4.10;;;10.60;99.90;;;;;;4999010;28;20277;-81
2023/03/22 11:48:32;;;;;;;9.05;4.53;;;10.70;99.90;;;;;;4998718;28;20125;-80
2023/03/22 11:51:38;;;;;;;10.10;5.27;;;10.70;99.90;;;;;;5016078;28;20045;-81
2023/03/22 11:55:06;;;;;;;8.35;4.95;;;10.70;99.90;;;;;;4981779;28;20048;-81
2023/03/22 11:58:00;;;;;;;8.10;4.85;;;10.70;99.90;;;;;;4977547;28;20069;-81
2023/03/22 12:00:52;;;;;;;8.40;4.30;;;10.70;99.90;;;;;;4969477;28;20524;-80
2023/03/22 12:03:58;;;;;;;9.75;4.90;;;10.70;99.90;;;;;;4977211;28;20499;-81
2023/03/22 12:06:55;;;;;;;8.70;4.75;;;10.60;99.90;;;;;;4940496;28;20432;-81
2023/03/22 12:10:10;;;;;;;7.15;4.78;;;10.70;99.90;;;;;;4978791;28;20504;-81
2023/03/22 12:13:26;;;;;;;10.05;4.90;;;10.60;99.90;;;;;;4998758;28;20520;-81
2023/03/22 12:16:39;;;;;;;7.15;5.05;;;10.70;99.90;;;;;;4962630;28;20501;-81
2023/03/22 12:19:51;;;;;;;8.07;5.18;;;10.70;99.90;;;;;;4970272;28;20504;-81
2023/03/22 12:22:55;;;;;;;8.18;5.10;;;10.70;99.90;;;;;;4977608;28;20516;-82
2023/03/22 12:25:37;;;;;;;8.18;4.93;;;10.70;99.90;;;;;;4997928;28;20038;-81
2023/03/22 12:28:54;;;;;;;;;;;;;;;;;;;;;
2023/03/22 12:32:28;;;;;;;9.18;5.18;;;10.60;99.90;;;;;;4992239;28;20045;-81
2023/03/22 12:35:23;;;;;;;9.90;4.85;;;10.80;99.90;;;;;;4995452;28;20034;-80
2023/03/22 12:38:26;;;;;;;6.80;4.97;;;10.60;99.90;;;;;;4990011;28;20492;-80
2023/03/22 12:41:14;;;;;;;;;;;;;;;;;;;;;
2023/03/22 12:44:30;;;;;;;11.00;5.72;;;10.70;99.90;;;;;;4998629;28;20554;-81
2023/03/22 12:47:55;;;;;;;10.35;5.40;;;10.60;99.90;;;;;;4963336;28;20039;-81
2023/03/22 12:51:24;;;;;;;;;;;;;;;;;;;;;
2023/03/22 12:54:06;;;;;;;7.22;5.45;;;10.50;99.90;;;;;;4987971;28;20046;-81
2023/03/22 12:57:05;;;;;;;;;;;;;;;;;;;;;
2023/03/22 13:00:21;;;;;;;10.35;5.13;;;10.30;99.90;;;;;;4987978;28;20109;-81
2023/03/22 13:03:51;;;;;;;8.93;5.50;;;10.30;99.90;;;;;;5006478;28;20049;-80
2023/03/22 13:06:54;;;;;;;9.43;5.95;;;10.20;99.90;;;;;;4983291;28;20046;-80
2023/03/22 13:09:35;;;;;;;6.95;6.00;;;10.30;99.90;;;;;;4983715;28;20061;-80
2023/03/22 13:16:32;;;;;;;8.70;5.78;;;10.20;99.90;;;;;;4989074;28;20041;-81
2023/03/22 13:23:32;;;;;;;10.50;5.50;;;10.20;99.90;;;;;;4930695;29;20038;-80
2023/03/22 14:18:55;;;;;;;13.10;6.10;;;10.60;99.90;;;;;;5021949;22;20052;-81
2023/03/22 14:22:41;;;;;;;;;;;;;;;;;;;;;
2023/03/22 14:25:59;;;;;;;9.82;6.15;;;10.60;99.90;;;;;;4945226;29;20071;-81
2023/03/22 14:32:29;;;;;;;9.57;5.80;;;10.70;99.90;;;;;;4968779;23;20133;-73
2023/03/22 14:35:21;;;;;;;8.18;6.25;;;10.60;99.90;;;;;;4978298;28;20065;-73
2023/03/22 14:37:47;;;;;;;8.25;6.22;;;10.70;99.90;;;;;;4976377;28;20046;-73
2023/03/22 14:40:28;;;;;;;9.07;5.82;;;10.70;99.90;;;;;;4981911;28;20058;-73
2023/03/22 14:42:54;;;;;;;9.00;5.63;;;10.70;99.90;;;;;;4971849;28;20050;-74
2023/03/22 14:45:25;;;;;;;8.63;5.53;;;10.70;99.90;;;;;;4989588;28;20046;-74
2023/03/22 14:47:53;;;;;;;9.95;6.13;;;10.70;99.90;;;;;;4993206;28;20042;-73
2023/03/22 14:50:21;;;;;;;8.07;6.10;;;10.70;99.90;;;;;;4986808;28;20034;-74
2023/03/22 14:52:50;;;;;;;7.32;6.32;;;10.80;99.90;;;;;;5006595;28;20057;-75
2023/03/22 14:55:25;;;;;;;9.23;6.30;;;10.70;99.90;;;;;;4993093;28;20489;-75
2023/03/22 14:57:57;;;;;;;8.43;6.57;;;10.70;99.90;;;;;;4976991;28;20038;-74
2023/03/22 15:00:24;;;;;;;8.20;6.57;;;10.70;99.90;;;;;;4988607;28;20097;-74
2023/03/22 15:02:57;;;;;;;9.02;6.55;;;10.70;99.90;;;;;;4987677;28;20049;-74
2023/03/22 15:05:25;;;;;;;10.88;6.47;;;10.80;99.90;;;;;;4992455;28;20070;-74
2023/03/22 15:08:06;;;;;;;10.30;6.22;;;10.80;99.90;;;;;;4988561;28;20030;-74
2023/03/22 15:10:34;;;;;;;9.85;6.13;;;10.90;99.90;;;;;;4973466;28;20112;-73
2023/03/22 15:13:01;;;;;;;7.40;5.85;;;10.90;99.90;;;;;;4979455;28;20485;-73
2023/03/22 15:15:33;;;;;;;7.30;6.07;;;11.00;99.90;;;;;;4983809;28;20046;-74
2023/03/22 15:18:01;;;;;;;5.95;5.13;;;11.00;99.90;;;;;;4976385;28;20046;-73
2023/03/22 15:20:30;;;;;;;7.30;5.20;;;11.00;99.90;;;;;;4992745;28;20129;-74